Terminal Aerodrome Forecast
Issued by NWS

Home | Current Version | Previous Version | Graphics & Text | Print | Product List | Glossary On
Versions: 1 2 3 4 5 6 7 8 9 10 11 12 13 14 15 16 17
000
FTUS43 KTOP 190500
TAFFOE
TAF
KFOE 190527Z 1906/2006 22012KT P6SM BKN100 WS011/25045KT
     FM190800 25011KT P6SM BKN100
     FM191500 32015G22KT P6SM SCT025
     FM192300 31011KT P6SM FEW030
     FM200100 28004KT P6SM SKC=

USA.gov is the U.S. government's official web portal to all federal, state and local government web resources and services.